createdAt,value
2023-05-15T00:02:47.100Z,84
2023-05-15T00:07:52.918Z,84.5
2023-05-15T00:12:59.064Z,83.5
2023-05-15T00:18:05.157Z,84
2023-05-15T00:23:11.209Z,83
2023-05-15T00:28:17.295Z,82
2023-05-15T00:33:23.413Z,82.5
2023-05-15T00:38:29.547Z,82
2023-05-15T00:43:35.872Z,83.5
2023-05-15T00:48:41.730Z,84
2023-05-15T00:53:47.839Z,83.5
2023-05-15T00:58:54.028Z,84.5
2023-05-15T01:04:00.184Z,84
2023-05-15T01:09:06.103Z,84
2023-05-15T01:14:12.223Z,85
2023-05-15T01:19:18.287Z,85
2023-05-15T01:24:24.636Z,85.5
2023-05-15T01:29:30.514Z,85.5
2023-05-15T01:34:36.575Z,85.5
2023-05-15T01:39:42.678Z,85
2023-05-15T01:44:48.989Z,86.5
2023-05-15T01:49:54.863Z,86
2023-05-15T01:55:01.150Z,85.5
2023-05-15T02:00:07.025Z,85.5
2023-05-15T02:05:13.344Z,85
2023-05-15T02:10:19.193Z,84.5
2023-05-15T02:15:25.535Z,84.5
2023-05-15T02:20:31.461Z,84.5
2023-05-15T02:25:37.534Z,83.5
2023-05-15T02:30:43.592Z,83.5
2023-05-15T02:35:49.757Z,84
2023-05-15T02:40:56.008Z,84.5
2023-05-15T02:46:01.963Z,84.5
2023-05-15T02:51:07.935Z,83
2023-05-15T02:56:14.137Z,84
2023-05-15T03:01:20.294Z,83.5
2023-05-15T03:06:26.268Z,85
2023-05-15T03:11:32.354Z,86
2023-05-15T03:16:38.455Z,85.5
2023-05-15T03:21:44.558Z,85.5
2023-05-15T03:26:50.949Z,84.5
2023-05-15T03:31:56.721Z,83.5
2023-05-15T03:37:02.925Z,84.5
2023-05-15T03:42:08.925Z,84
2023-05-15T03:47:14.982Z,85.5
2023-05-15T03:52:21.109Z,85
2023-05-15T03:57:27.211Z,84
2023-05-15T04:02:33.361Z,85.5
2023-05-15T04:07:39.479Z,85.5
2023-05-15T04:12:45.493Z,86
2023-05-15T04:17:51.624Z,86
2023-05-15T04:22:57.629Z,84.5
2023-05-15T04:28:03.980Z,84
2023-05-15T04:33:09.847Z,84.5
2023-05-15T04:38:15.934Z,86
2023-05-15T04:43:22.016Z,85.5
2023-05-15T04:48:28.118Z,85
2023-05-15T04:53:34.246Z,85
2023-05-15T04:58:40.277Z,84.5
2023-05-15T05:03:46.413Z,86
2023-05-15T05:08:52.509Z,86
2023-05-15T05:13:58.567Z,86.5
2023-05-15T05:19:04.744Z,84
2023-05-15T05:24:10.755Z,84
2023-05-15T05:29:16.896Z,85
2023-05-15T05:34:22.981Z,83.5
2023-05-15T05:39:29.088Z,83.5
2023-05-15T05:44:35.363Z,85.5
2023-05-15T05:49:41.231Z,82.5
2023-05-15T05:54:47.342Z,82.5
2023-05-15T05:59:53.436Z,82.5
2023-05-15T06:04:59.513Z,83
2023-05-15T06:10:05.624Z,84.5
2023-05-15T06:15:11.697Z,81
2023-05-15T06:20:17.819Z,83.5
2023-05-15T06:25:23.899Z,80.5
2023-05-15T06:30:29.994Z,81
2023-05-15T06:35:36.078Z,80
2023-05-15T06:40:42.192Z,77.5
2023-05-15T06:45:48.408Z,81
2023-05-15T06:50:54.364Z,81
2023-05-15T06:56:00.469Z,79.5
2023-05-15T07:01:06.806Z,81.5
2023-05-15T07:06:12.698Z,79
2023-05-15T07:11:18.732Z,80
2023-05-15T07:16:24.829Z,80
2023-05-15T07:21:30.932Z,77.5
2023-05-15T07:26:43.832Z,78.5
2023-05-15T07:31:43.127Z,76.5
2023-05-15T07:36:49.210Z,77.5
2023-05-15T07:41:55.326Z,75.5
2023-05-15T07:47:01.440Z,64.5
2023-05-15T07:52:07.524Z,61
2023-05-15T07:57:13.614Z,64.5
2023-05-15T08:02:19.952Z,63
2023-05-15T08:07:25.814Z,59.5
2023-05-15T08:12:31.912Z,59.5
2023-05-15T08:17:37.987Z,62
2023-05-15T08:22:44.083Z,71.5
2023-05-15T08:27:50.183Z,77.5
2023-05-15T08:32:56.331Z,70
2023-05-15T08:38:02.620Z,63.5
2023-05-15T08:43:08.450Z,73
2023-05-15T08:48:14.653Z,79.5
2023-05-15T08:53:20.641Z,85.5
2023-05-15T08:58:29.014Z,89
2023-05-15T09:03:33.059Z,89
2023-05-15T09:08:38.913Z,90.5
2023-05-15T09:13:45.047Z,89
2023-05-15T09:18:51.143Z,90
2023-05-15T09:23:57.314Z,87
2023-05-15T09:34:09.392Z,81
2023-05-15T09:39:15.528Z,75.5
2023-05-15T09:44:22.041Z,76
2023-05-15T09:49:27.690Z,77.5
2023-05-15T09:54:33.765Z,74
2023-05-15T09:59:39.882Z,71
2023-05-15T10:04:46.002Z,71.5
2023-05-15T10:09:52.045Z,62
2023-05-15T10:14:58.262Z,65.5
2023-05-15T10:20:05.255Z,69
2023-05-15T10:25:10.342Z,66.5
2023-05-15T10:30:16.448Z,69.5
2023-05-15T10:35:22.563Z,72
2023-05-15T10:40:28.866Z,72
2023-05-15T10:45:34.728Z,70.5
2023-05-15T10:50:40.808Z,60
2023-05-15T10:55:48.064Z,57
2023-05-15T11:00:53.074Z,59
2023-05-15T11:05:59.204Z,58.5
2023-05-15T11:11:05.228Z,56
2023-05-15T11:16:12.094Z,55.5
2023-05-15T11:21:17.619Z,56.5
2023-05-15T11:26:23.574Z,55.5
2023-05-15T11:31:29.692Z,59.5
2023-05-15T11:36:36.394Z,63
2023-05-15T11:41:42.742Z,61
2023-05-15T11:46:47.855Z,63.5
2023-05-15T11:51:53.940Z,64
2023-05-15T11:57:00.123Z,66.5
2023-05-15T12:02:06.293Z,58.5
2023-05-15T12:07:12.231Z,59
2023-05-15T12:12:19.866Z,59.5
2023-05-15T12:17:24.484Z,59
2023-05-15T12:22:30.679Z,57
2023-05-15T12:27:36.610Z,57.5
2023-05-15T12:32:42.773Z,63.5
2023-05-15T12:37:48.803Z,56.5
2023-05-15T12:42:55.041Z,57.5
2023-05-15T12:48:01.059Z,49.5
2023-05-15T12:53:07.089Z,52.5
2023-05-15T12:58:13.188Z,52
2023-05-15T13:03:19.346Z,54.5
2023-05-15T13:08:25.372Z,53
2023-05-15T13:13:31.462Z,57
2023-05-15T13:18:37.585Z,56.5
2023-05-15T13:23:43.686Z,56
2023-05-15T13:28:49.732Z,60
2023-05-15T13:33:55.859Z,55.5
2023-05-15T13:39:01.954Z,59
2023-05-15T13:44:08.039Z,56
2023-05-15T13:49:14.127Z,54.5
2023-05-15T13:54:20.267Z,55
2023-05-15T13:59:26.341Z,55.5
2023-05-15T14:04:32.426Z,54
2023-05-15T14:09:38.573Z,57.5
2023-05-15T14:14:44.612Z,49.5
2023-05-15T14:19:50.803Z,53.5
2023-05-15T14:24:56.810Z,54
2023-05-15T14:30:03.041Z,49.5
2023-05-15T14:35:08.950Z,49
2023-05-15T14:40:15.094Z,49.5
2023-05-15T14:45:21.176Z,47
2023-05-15T14:50:27.393Z,51
2023-05-15T14:55:33.358Z,52
2023-05-15T15:00:39.459Z,51.5
2023-05-15T15:05:45.545Z,54
2023-05-15T15:10:51.638Z,51
2023-05-15T15:15:57.787Z,51
2023-05-15T15:21:03.831Z,47.5
2023-05-15T15:26:09.916Z,50
2023-05-15T15:31:16.045Z,56
2023-05-15T15:36:22.101Z,50
2023-05-15T15:41:28.204Z,52
2023-05-15T15:46:34.305Z,48
2023-05-15T15:51:40.416Z,51
2023-05-15T15:56:46.544Z,55
2023-05-15T16:01:52.648Z,56
2023-05-15T16:06:58.801Z,54
2023-05-15T16:12:04.782Z,53
2023-05-15T16:17:10.925Z,55
2023-05-15T16:22:17.086Z,53
2023-05-15T16:27:23.088Z,52.5
2023-05-15T16:32:29.192Z,54.5
2023-05-15T16:37:35.243Z,57
2023-05-15T16:42:41.424Z,55.5
2023-05-15T16:47:47.474Z,56
2023-05-15T16:52:53.813Z,59.5
2023-05-15T16:58:05.261Z,59.5
2023-05-15T17:03:11.458Z,59.5
2023-05-15T17:08:17.479Z,58.5
2023-05-15T17:13:24.313Z,60.5
2023-05-15T17:18:29.657Z,59
2023-05-15T17:23:35.743Z,59
2023-05-15T17:28:41.906Z,60
2023-05-15T17:33:48.063Z,60
2023-05-15T17:38:54.158Z,59.5
2023-05-15T17:44:00.151Z,60.5
2023-05-15T17:49:06.184Z,62
2023-05-15T17:54:12.324Z,63
2023-05-15T17:59:18.373Z,64.5
2023-05-15T18:04:24.707Z,63.5
2023-05-15T18:09:30.596Z,65
2023-05-15T18:14:37.160Z,66.5
2023-05-15T18:19:42.793Z,67
2023-05-15T18:24:48.849Z,67
2023-05-15T18:29:55.069Z,68.5
2023-05-15T18:35:01.298Z,70.5
2023-05-15T18:40:07.298Z,71.5
2023-05-15T18:45:13.230Z,73
2023-05-15T18:50:19.345Z,73
2023-05-15T18:55:25.575Z,69.5
2023-05-15T19:00:43.527Z,74
2023-05-15T19:05:37.683Z,73
2023-05-15T19:10:43.730Z,73.5
2023-05-15T19:15:50.015Z,72.5
2023-05-15T19:20:55.912Z,71.5
2023-05-15T19:26:02.006Z,73.5
2023-05-15T19:31:11.840Z,73
2023-05-15T19:36:14.198Z,74.5
2023-05-15T19:41:20.270Z,74
2023-05-15T19:46:26.384Z,74.5
2023-05-15T19:51:32.505Z,73.5
2023-05-15T19:56:38.550Z,74
2023-05-15T20:01:44.680Z,75
2023-05-15T20:06:50.746Z,76
2023-05-15T20:11:56.897Z,76
2023-05-15T20:17:02.963Z,77
2023-05-15T20:22:09.025Z,78
2023-05-15T20:27:15.117Z,76.5
2023-05-15T20:32:21.483Z,77.5
2023-05-15T20:37:27.395Z,78.5
2023-05-15T20:42:33.414Z,79
2023-05-15T20:47:39.503Z,79.5
2023-05-15T20:52:45.602Z,78.5
2023-05-15T20:57:51.694Z,78.5
2023-05-15T21:02:57.946Z,76.5
2023-05-15T21:08:03.886Z,77.5
2023-05-15T21:13:09.971Z,78.5
2023-05-15T21:18:16.070Z,78.5
2023-05-15T21:23:22.180Z,79
2023-05-15T21:28:28.242Z,80
2023-05-15T21:33:34.375Z,79.5
2023-05-15T21:38:40.483Z,80
2023-05-15T21:43:46.786Z,79
2023-05-15T21:48:52.663Z,80
2023-05-15T21:53:58.742Z,78.5
2023-05-15T21:59:04.853Z,80.5
2023-05-15T22:04:11.004Z,81.5
2023-05-15T22:09:18.014Z,80
2023-05-15T22:14:23.425Z,81
2023-05-15T22:19:32.905Z,82
2023-05-15T22:24:35.312Z,81.5
2023-05-15T22:29:41.426Z,81.5
2023-05-15T22:34:47.517Z,81.5
2023-05-15T22:39:53.828Z,80
2023-05-15T22:44:59.710Z,80.5
2023-05-15T22:50:05.780Z,80.5
2023-05-15T22:55:11.886Z,81.5
2023-05-15T23:00:17.984Z,81.5
2023-05-15T23:05:24.076Z,82
2023-05-15T23:10:30.214Z,81.5
2023-05-15T23:15:36.339Z,81
2023-05-15T23:20:42.368Z,81.5
2023-05-15T23:25:48.458Z,81.5
2023-05-15T23:30:54.561Z,82.5
2023-05-15T23:36:00.644Z,81.5
2023-05-15T23:41:06.710Z,80.5
2023-05-15T23:46:12.854Z,81.5
2023-05-15T23:51:18.893Z,82
2023-05-15T23:56:25.064Z,81.5
